Aviation Digital Data Service (ADDS)

Output produced by METARs form (1915 UTC 25 October 2021)
found at http://www.aviationweather.gov/metar/data/
 
LECO 251900Z 00000KT CAVOK 13/13 Q1024 NOSIG
TAF LECO 251400Z 2515/2615 VRB04KT 9999 FEW020 BKN035 TX18/2515Z TN08/2606Z 
     PROB40 
     TEMPO 2515/2518 30010KT 
     TEMPO 2600/2607 3000 BR
       
LEAB 251900Z 16005KT CAVOK 13/05 Q1021 NOSIG
TAF LEAB 251700Z 2518/2618 VRB05KT CAVOK TX21/2615Z TN06/2606Z 
     BECMG 2519/2521 15010KT 
     TEMPO 2521/2608 BKN007 
     PROB30 
     TEMPO 2602/2607 3000 BR BCFG BKN003
       
LERI 251800Z 23005KT CAVOK 18/13 Q1020 NOSIG
TAF LERI 251700Z 2518/2618 VRB02KT 9999 FEW030 TX25/2614Z TN11/2606Z 
     PROB30 
     TEMPO 2600/2608 4000 BR BKN012 
     BECMG 2609/2611 06010KT
       
LEAL 251900Z VRB02KT CAVOK 18/14 Q1021 NOSIG
TAF LEAL 251700Z 2518/2618 VRB03KT 9999 FEW025 TX22/2612Z TN14/2606Z 
     BECMG 2520/2522 35007KT 
     BECMG 2608/2610 06014KT 
     PROB30 
     TEMPO 2611/2618 SHRA FEW030CB BKN040
       
LEAM 251900Z VRB04KT CAVOK 19/14 Q1020
TAF LEAM 251700Z 2518/2618 08010KT 9999 FEW030 TX25/2614Z TN16/2606Z 
     BECMG 2521/2523 35006KT 
     BECMG 2607/2609 05014KT 
     TEMPO 2608/2618 06015G25KT
       
TAF LEGA 251100Z 2512/2612 VRB02KT CAVOK TX26/2515Z TN07/2606Z 
     BECMG 2514/2516 18010KT 
     BECMG 2522/2524 VRB02KT
       
LEAS 251900Z 21003KT 9999 FEW012 13/11 Q1024 NOSIG
TAF LEAS 251400Z 2515/2615 22006KT 9999 SCT035 TX18/2614Z TN09/2604Z 
     TEMPO 2515/2519 30010KT 
     PROB30 
     TEMPO 2515/2519 RA 
     TEMPO 2523/2607 3000 BR 
     TEMPO 2612/2615 06010KT
       
LEMD 251900Z 00000KT CAVOK 14/03 Q1021 NOSIG
TAF LEMD 251700Z 2518/2624 VRB05KT CAVOK TX21/2615Z TN06/2606Z 
     PROB40 
     TEMPO 2522/2609 02010KT
       
LEBL 251900Z VRB02KT 9999 FEW020 16/13 Q1021 NOSIG
TAF LEBL 251700Z 2518/2618 VRB03KT 9999 SCT020 TX21/2612Z TN13/2606Z 
     BECMG 2521/2523 34010KT 
     BECMG 2610/2612 22010KT
       
LEBB 251900Z 12002KT 9999 FEW030 15/13 Q1024 NOSIG
TAF LEBB 251700Z 2518/2618 VRB04KT 9999 SCT040 TX19/2614Z TN11/2606Z 
     PROB30 2522/2606 3000 -RA BR BKN010
       
LEBG 251900Z 03007KT 9999 FEW049 10/06 Q1024
TAF LEBG 251400Z 2515/2615 VRB05KT CAVOK TX17/2515Z TN04/2606Z 
     BECMG 2516/2517 05010KT 
     TEMPO 2522/2609 BKN008 
     PROB40 
     TEMPO 2600/2608 3000 BCFG BKN003
       
LEBA 251900Z AUTO 00000KT CAVOK 18/07 Q1018
TAF LEBA 251400Z 2515/2615 06004KT CAVOK TX27/2515Z TN08/2606Z
       
LEVS 251900Z 00000KT CAVOK 14/02 Q1021
TAF LEVS 251700Z 2518/2618 VRB05KT CAVOK TX22/2615Z TN09/2606Z 
     PROB40 
     TEMPO 2523/2609 03010KT
       
GCFV 251900Z 04007KT 9999 SCT030 22/19 Q1018
TAF GCFV 251400Z 2515/2615 05010KT 9999 FEW030 TX25/2614Z TN21/2606Z 
     BECMG 2520/2522 35009KT 
     BECMG 2609/2611 05012KT
       
LEGT 251800Z 15002KT CAVOK 15/02 Q1021
TAF LEGT 251700Z 2518/2618 VRB05KT CAVOK TX21/2615Z TN08/2606Z 
     PROB40 
     TEMPO 2523/2609 04010KT
       
LEGE 251900Z VRB02KT 9999 SCT015 SCT035 15/13 Q1022
TAF LEGE 251700Z 2518/2618 VRB04KT 9999 SCT020 TX23/2613Z TN07/2606Z 
     PROB40 
     TEMPO 2521/2608 3000 BR BKN008 
     PROB30 
     TEMPO 2600/2607 0400 FG VV001 
     TEMPO 2614/2618 18008KT
       
GCLP 251900Z 01013KT 9999 FEW025 23/17 Q1019 NOSIG
TAF GCLP 251400Z 2515/2615 02012KT 9999 SCT030 TX24/2614Z TN20/2606Z 
     PROB30 
     TEMPO 2600/2606 RA
       
LEGR 251900Z 18007KT CAVOK 18/12 Q1020
TAF LEGR 251700Z 2518/2618 17010KT CAVOK TX25/2615Z TN06/2606Z 
     BECMG 2520/2522 VRB02KT
       
GCHI 251900Z AUTO 04014KT 9999 FEW025 OVC049 23/17 Q1020
TAF GCHI 251400Z 2515/2615 03012KT 9999 SCT030 TX25/2614Z TN21/2606Z
       
LEIB 251900Z VRB02KT 9999 FEW040 17/13 Q1020 NOSIG
TAF LEIB 251400Z 2515/2615 36005KT 9999 FEW030 TX22/2612Z TN13/2606Z 
     BECMG 2601/2603 03008KT 
     PROB30 
     TEMPO 2603/2608 TSRA FEW025CB 
     BECMG 2608/2610 06012KT
       
LEJR 251900Z 21005KT CAVOK 20/13 Q1018
TAF LEJR 251400Z 2515/2615 11004KT CAVOK TX28/2515Z TN09/2606Z 
     BECMG 2515/2517 17010KT 
     BECMG 2521/2523 VRB02KT 
     BECMG 2607/2609 10010KT
       
GCGM 251900Z AUTO 08007KT 040V110 CAVOK 22/14 Q1020 RMK R09/04005KT 300V110 ARP/VRB05KT
TAF GCGM 251400Z 2515/2615 22008KT 9999 SCT025 TX25/2614Z TN21/2606Z 
     PROB30 
     TEMPO 2605/2615 03015KT
       
GCLA 251900Z 03010KT 9999 SCT032 BKN040 23/16 Q1020
TAF GCLA 251400Z 2515/2615 35012KT 9999 BKN030 TX23/2614Z TN19/2606Z 
     PROB40 
     TEMPO 2520/2602 RA
       
GCRR 251900Z 36013KT 9999 FEW025 22/17 Q1018
TAF GCRR 251400Z 2515/2615 02012KT 9999 FEW035 TX27/2614Z TN19/2606Z
       
LELN 251900Z 31004KT 260V350 CAVOK 10/04 Q1023
TAF LELN 251400Z 2515/2615 VRB05KT 9999 SCT040 TX17/2515Z TN03/2606Z 
     BECMG 2517/2518 36008KT 
     PROB40 
     TEMPO 2600/2609 3000 BR BCFG SCT003 
     BECMG 2609/2610 VRB04KT
       
LEMG 251900Z 00000KT CAVOK 19/16 Q1020 NOSIG
TAF LEMG 251700Z 2518/2618 11006KT 9999 FEW020 TX24/2613Z TN14/2606Z 
     BECMG 2521/2523 29004KT 
     PROB30 
     TEMPO 2600/2608 4000 BR BKN012 
     BECMG 2609/2611 13008KT
       
GEML 251900Z AUTO 10006KT 070V140 CAVOK 19/13 Q1019
TAF GEML 251700Z 2518/2618 09008KT 9999 FEW012 SCT020 TX23/2613Z TN18/2606Z 
     PROB30 
     TEMPO 2603/2609 BKN012
       
LEMH 251900Z 02005KT CAVOK 16/13 Q1021
TAF LEMH 251400Z 2515/2615 02010KT 9999 FEW025 TX21/2612Z TN14/2606Z 
     TEMPO 2521/2608 01004KT
       
LEMO 251900Z 18007KT 150V210 CAVOK 22/07 Q1018 NOSIG
TAF LEMO 251400Z 2515/2615 VRB02KT CAVOK TX28/2515Z TN10/2606Z 
     BECMG 2517/2519 22010KT 
     BECMG 2523/2601 05005KT
       
LEPP 251900Z 31005KT 9999 FEW030 13/09 Q1024
TAF LEPP 251400Z 2515/2615 34007KT 9999 FEW030 TX20/2614Z TN03/2606Z 
     PROB40 
     TEMPO 2600/2609 3000 BR 
     PROB30 
     TEMPO 2600/2608 0800 FG VV001
       
LERS 251900Z 31004KT 230V330 CAVOK 15/12 Q1021
TAF LERS 251400Z 2515/2615 VRB04KT 9999 FEW025 TX23/2612Z TN09/2606Z 
     TEMPO 2515/2517 16007KT 
     TEMPO 2521/2604 01007KT 
     BECMG 2611/2613 22008KT
       
LERT 251900Z 27003KT 210V280 CAVOK 19/15 Q1018 NOSIG
TAF LERT 251400Z 2515/2615 07006KT CAVOK TX26/2515Z TN12/2606Z 
     BECMG 2515/2517 28010KT 
     BECMG 2519/2521 13006KT
       
LESA 251900Z 03004KT CAVOK 10/04 Q1023
TAF LESA 251400Z 2515/2615 VRB05KT 9999 SCT040 TX20/2515Z TN03/2606Z 
     PROB40 
     TEMPO 2515/2518 32010KT 
     BECMG 2602/2603 03008KT 
     PROB40 
     TEMPO 2603/2609 3000 BR BCFG SCT003 
     PROB40 
     TEMPO 2605/2608 0500 FG VV001
       
LESO 251900Z 18003KT 9999 FEW018 SCT034 BKN045 15/14 Q1024
TAF LESO 251700Z 2518/2618 VRB04KT 9999 BKN030 TX19/2614Z TN11/2606Z 
     PROB30 
     TEMPO 2521/2606 3000 -RA BKN010
       
LEXJ 251900Z 22005KT 9999 FEW024 15/12 Q1024
TAF LEXJ 251400Z 2515/2615 VRB05KT 9999 SCT050 TX20/2615Z TN10/2606Z 
     PROB40 
     TEMPO 2515/2518 30010KT 
     PROB30 
     TEMPO 2515/2523 RA SCT030TCU 
     TEMPO 2612/2615 06010KT
       
LEST 251900Z 04004KT 360V080 9999 FEW020 13/10 Q1024 NOSIG
TAF LEST 251700Z 2518/2618 VRB05KT 9999 FEW015 TX19/2614Z TN07/2605Z 
     TEMPO 2600/2609 3000 BR BKN010 
     TEMPO 2603/2608 0800 BCFG BKN002 
     PROB40 
     TEMPO 2603/2608 0350 FG VV001
       
LESU 251630Z 24006KT 210V270 CAVOK 16/02 Q1021
TAF LESU 251400Z 2515/2615 VRB04KT 9999 FEW040 TX20/2614Z TN03/2606Z 
     TEMPO 2515/2517 20007KT 
     TEMPO 2613/2615 20007KT
       
LEZL 251900Z 03003KT 260V060 CAVOK 22/07 Q1018 NOSIG
TAF LEZL 251400Z 2515/2615 05005KT CAVOK TX28/2515Z TN11/2606Z 
     BECMG 2518/2520 22010KT 
     BECMG 2602/2604 05006KT
       
LESB 251900Z AUTO 06004KT 9999 SCT043/// 19/16 Q1021
LEBZ 251900Z 36001KT CAVOK 15/06 Q1019
TAF LEBZ 251400Z 2515/2615 VRB02KT CAVOK TX25/2515Z TN07/2607Z
       
GCXO 251900Z 32007KT 280V350 9999 FEW006 SCT012 17/15 Q1021 NOSIG
TAF GCXO 251400Z 2515/2615 32009KT 9999 BKN035 TX22/2614Z TN16/2606Z 
     PROB30 
     TEMPO 2515/2603 4500 BCFG BKN005 
     PROB30 
     TEMPO 2515/2603 RA
       
GCTS 251900Z 08009KT 9999 BKN040 23/17 Q1019 NOSIG
TAF GCTS 251400Z 2515/2615 08010KT 9999 BKN040 TX26/2614Z TN19/2606Z 
     PROB30 
     TEMPO 2515/2519 RA 
     TEMPO 2516/2520 VRB03KT 
     BECMG 2519/2521 02012KT 
     BECMG 2609/2611 08015KT 
     PROB40 
     TEMPO 2610/2615 08015G25KT
       
LETO 251900Z 02004KT CAVOK 12/02 Q1021 NOSIG
TAF LETO 251700Z 2518/2618 VRB05KT CAVOK TX21/2615Z TN06/2606Z 
     TEMPO 2522/2609 03010KT
       
LEVC 251900Z 36004KT 310V030 9999 SCT025 18/14 Q1021 NOSIG
TAF LEVC 251700Z 2518/2618 09006KT 9999 SCT020 TX20/2612Z TN13/2606Z 
     BECMG 2519/2521 32007KT 
     BECMG 2609/2611 08008KT
       
LEVD 251900Z 35005KT CAVOK 10/03 Q1023
TAF LEVD 251400Z 2515/2615 VRB05KT CAVOK TX19/2515Z TN05/2606Z 
     BECMG 2520/2521 05010KT 
     PROB40 
     TEMPO 2523/2609 3000 BR BCFG BKN003
       
LEVX 251900Z VRB02KT CAVOK 13/12 Q1023 NOSIG
TAF LEVX 251700Z 2518/2618 VRB05KT 9999 FEW020 TX20/2614Z TN08/2606Z 
     TEMPO 2613/2618 30010KT
       
LEVT 251900Z 01003KT 340V040 9999 SCT040 11/08 Q1025
TAF LEVT 251700Z 2518/2618 VRB05KT 9999 FEW040 TX18/2615Z TN03/2606Z 
     TEMPO 2518/2519 36010KT 
     TEMPO 2523/2609 1500 BR BCFG 
     PROB40 
     TEMPO 2600/2609 0350 FG VV001 
     TEMPO 2612/2618 01010KT
       
LEZG 251900Z 22006KT CAVOK 14/04 Q1022
TAF LEZG 251700Z 2518/2618 VRB04KT 9999 FEW040 TX21/2614Z TN08/2606Z 
     BECMG 2519/2521 28008KT 
     PROB30 
     TEMPO 2605/2609 BKN006 
     BECMG 2615/2617 VRB04KT